Time;durP1;ratioP1;P1;durP2;ratioP2;P2;SDS_P1;SDS_P2;PMS_P1;PMS_P2;Temp;Humidity;BMP_temperature;BMP_pressure;BME280_temperature;BME280_humidity;BME280_pressure;Samples;Min_cycle;Max_cycle;Signal;HPM_P1;HPM_P2
2021/08/30 00:00:42;;;;;;;8.38;5.25;;;;;;;24.01;47.34;102750.56;5033060;28;20039;-89
2021/08/30 00:03:08;;;;;;;7.63;4.28;;;;;;;24.02;47.32;102750.19;5032851;28;20034;-73
2021/08/30 00:05:33;;;;;;;8.75;4.53;;;;;;;23.95;47.67;102751.97;5031810;28;20031;-74
2021/08/30 00:07:59;;;;;;;10.48;5.20;;;;;;;23.94;47.85;102748.38;5031530;28;20049;-73
2021/08/30 00:10:25;;;;;;;8.88;4.75;;;;;;;23.96;47.84;102756.41;5031996;28;20067;-73
2021/08/30 00:12:51;;;;;;;6.72;4.35;;;;;;;23.87;48.03;102758.53;5032390;28;20030;-83
2021/08/30 00:15:17;;;;;;;10.15;5.82;;;;;;;23.90;47.91;102760.63;5031815;28;20116;-73
2021/08/30 00:17:45;;;;;;;10.07;4.78;;;;;;;23.91;48.09;102757.47;5031567;28;20519;-73
2021/08/30 00:20:14;;;;;;;8.82;5.45;;;;;;;23.89;48.27;102759.81;5031368;28;20112;-74
2021/08/30 00:22:40;;;;;;;12.88;5.97;;;;;;;23.89;48.46;102759.81;5032809;28;20029;-72
2021/08/30 00:25:06;;;;;;;9.45;4.72;;;;;;;23.89;48.63;102756.22;5032554;28;20040;-74
2021/08/30 00:27:32;;;;;;;9.82;5.40;;;;;;;23.91;48.57;102759.44;5032660;28;20071;-74
2021/08/30 00:29:58;;;;;;;7.63;5.50;;;;;;;23.91;48.70;102756.66;5032925;28;20057;-74
2021/08/30 00:32:24;;;;;;;8.07;5.75;;;;;;;23.86;48.55;102754.13;5032727;28;20033;-90
2021/08/30 00:34:50;;;;;;;10.43;5.95;;;;;;;23.92;48.79;102742.34;5031678;28;20086;-73
2021/08/30 00:37:16;;;;;;;8.77;5.28;;;;;;;23.87;48.73;102756.53;5032811;28;20032;-74
2021/08/30 00:39:41;;;;;;;7.35;5.15;;;;;;;23.82;48.96;102756.00;5031883;28;20514;-90
2021/08/30 00:42:07;;;;;;;6.72;5.05;;;;;;;23.82;48.89;102750.44;5032595;28;20451;-87
2021/08/30 00:44:33;;;;;;;7.25;5.05;;;;;;;23.80;49.03;102759.97;5032551;28;20056;-89
2021/08/30 00:46:59;;;;;;;8.07;5.30;;;;;;;23.82;49.33;102761.59;5032802;28;20392;-73
2021/08/30 00:49:25;;;;;;;10.90;6.05;;;;;;;23.80;49.18;102757.19;5032477;28;20030;-73
2021/08/30 00:51:51;;;;;;;9.57;5.63;;;;;;;23.70;49.69;102757.66;5032422;28;20029;-73
2021/08/30 00:54:17;;;;;;;8.38;5.63;;;;;;;23.68;49.48;102746.06;5032334;28;20112;-74
2021/08/30 00:56:43;;;;;;;11.90;6.43;;;;;;;23.74;49.61;102755.81;5032550;28;20480;-73
2021/08/30 00:59:09;;;;;;;10.48;6.10;;;;;;;23.69;49.90;102749.66;5032686;28;20099;-73
2021/08/30 01:01:36;;;;;;;9.95;6.20;;;;;;;23.70;49.46;102752.09;5032188;28;20437;-73
2021/08/30 01:04:06;;;;;;;10.25;6.43;;;;;;;23.78;49.58;102747.50;5033116;28;20064;-73
2021/08/30 01:06:43;;;;;;;;;;;;;;;23.83;49.70;102750.06;5036627;28;20391;-73
2021/08/30 01:09:38;;;;;;;7.55;5.30;;;;;;;23.63;50.00;102749.09;5036360;28;20338;-73
2021/08/30 01:12:34;;;;;;;13.48;7.25;;;;;;;23.61;50.10;102754.22;5036465;28;20045;-73
2021/08/30 01:15:04;;;;;;;13.63;6.13;;;;;;;23.67;50.25;102752.81;5036254;28;20537;-82
2021/08/30 01:17:35;;;;;;;13.13;7.75;;;;;;;23.67;50.13;102752.81;5036485;28;20040;-73
2021/08/30 01:20:24;;;;;;;7.55;5.60;;;;;;;23.54;50.60;102752.00;5036310;28;20116;-82
2021/08/30 01:22:53;;;;;;;7.20;4.77;;;;;;;23.60;50.19;102749.81;5036359;28;20033;-88
2021/08/30 01:25:21;;;;;;;8.97;5.20;;;;;;;23.62;50.03;102746.66;5035979;28;20063;-74
2021/08/30 01:27:49;;;;;;;15.05;5.72;;;;;;;23.52;50.56;102757.13;5036145;28;20472;-73
2021/08/30 01:30:18;;;;;;;9.50;4.25;;;;;;;23.57;50.18;102758.81;5034827;28;20084;-73
2021/08/30 01:33:00;;;;;;;8.10;4.27;;;;;;;23.62;50.29;102761.41;5034884;28;20492;-78
2021/08/30 01:35:28;;;;;;;10.85;4.32;;;;;;;23.57;50.20;102760.81;5036066;28;20267;-73
2021/08/30 01:37:57;;;;;;;9.20;5.15;;;;;;;23.59;50.09;102762.09;5034587;28;20088;-76
2021/08/30 01:40:26;;;;;;;7.63;3.92;;;;;;;23.62;49.91;102764.19;5035008;28;20026;-73
2021/08/30 01:42:53;;;;;;;5.35;3.50;;;;;;;23.58;50.24;102766.06;5035909;28;20025;-73
2021/08/30 01:45:22;;;;;;;6.80;4.05;;;;;;;23.60;50.27;102765.69;5035811;28;20034;-73
2021/08/30 01:47:51;;;;;;;9.32;3.97;;;;;;;23.65;50.03;102766.28;5034737;28;20028;-87
2021/08/30 01:50:20;;;;;;;6.65;3.83;;;;;;;23.59;50.18;102766.88;5035490;28;20029;-73
2021/08/30 01:52:47;;;;;;;10.07;3.97;;;;;;;23.71;49.62;102769.63;5035821;28;20031;-73
2021/08/30 02:00:42;;;;;;;7.05;2.85;;;;;;;23.64;48.66;102775.00;5035706;28;20065;-77
2021/08/30 02:00:44;;;;;;;12.63;2.97;;;;;;;23.67;48.40;102763.16;5035696;28;20495;-73
2021/08/30 02:03:24;;;;;;;7.55;2.83;;;;;;;23.69;48.42;102771.97;5035909;28;20123;-73
2021/08/30 02:05:52;;;;;;;10.77;4.05;;;;;;;23.65;48.06;102771.03;5035288;28;20026;-89
2021/08/30 02:08:22;;;;;;;8.02;2.95;;;;;;;23.65;48.05;102763.47;5035602;28;20410;-73
2021/08/30 02:10:50;;;;;;;5.90;2.13;;;;;;;23.65;48.20;102773.84;5034072;28;20026;-72
2021/08/30 02:13:17;;;;;;;4.63;2.33;;;;;;;23.66;47.69;102761.53;5035403;28;20029;-73
2021/08/30 02:15:46;;;;;;;15.10;2.95;;;;;;;23.66;47.96;102767.94;5034325;28;20021;-89
2021/08/30 02:18:44;;;;;;;6.90;2.80;;;;;;;23.61;47.72;102765.38;5035794;28;20033;-88
2021/08/30 02:24:11;;;;;;;7.68;2.63;;;;;;;23.74;47.22;102774.53;5227704;22;20127;-74
2021/08/30 02:27:11;;;;;;;7.32;2.33;;;;;;;23.71;47.53;102775.22;4991062;28;20039;-73
2021/08/30 02:29:48;;;;;;;4.22;2.80;;;;;;;23.83;47.04;102771.59;4992928;28;20476;-89
2021/08/30 02:32:15;;;;;;;7.57;2.03;;;;;;;23.68;47.49;102775.94;4991552;28;20155;-76
2021/08/30 02:34:55;;;;;;;6.40;2.95;;;;;;;23.73;47.63;102778.50;4991350;28;20037;-73
2021/08/30 02:37:28;;;;;;;5.25;2.22;;;;;;;23.70;47.32;102768.81;4992436;28;20030;-89
2021/08/30 02:39:55;;;;;;;5.65;2.70;;;;;;;23.67;47.37;102772.34;4992636;28;20038;-89
2021/08/30 02:42:21;;;;;;;6.25;2.97;;;;;;;23.64;47.67;102770.22;4991963;28;20106;-77
2021/08/30 02:44:48;;;;;;;6.10;2.33;;;;;;;23.59;47.57;102769.66;4992055;28;20104;-73
2021/08/30 02:47:15;;;;;;;4.68;2.50;;;;;;;23.59;47.84;102775.25;4990767;28;20112;-73
2021/08/30 02:49:44;;;;;;;7.10;2.28;;;;;;;23.58;47.61;102771.66;4990432;28;20076;-73
2021/08/30 02:52:12;;;;;;;4.63;1.90;;;;;;;23.60;47.37;102768.50;4990913;28;20551;-73
2021/08/30 02:54:39;;;;;;;7.88;3.35;;;;;;;23.62;47.38;102772.56;4991943;28;20031;-73
2021/08/30 02:57:06;;;;;;;8.68;2.78;;;;;;;23.68;47.22;102771.16;4991814;28;20029;-73
2021/08/30 02:59:34;;;;;;;5.43;2.20;;;;;;;23.65;47.44;102768.25;4991838;28;20425;-73
2021/08/30 03:02:00;;;;;;;6.70;2.33;;;;;;;23.56;47.96;102761.97;4991523;28;20031;-77
2021/08/30 03:04:27;;;;;;;12.50;3.20;;;;;;;23.67;47.59;102772.34;4991630;28;20547;-72
2021/08/30 03:06:54;;;;;;;5.65;2.33;;;;;;;23.59;47.79;102767.69;4991756;28;20030;-72
2021/08/30 03:09:20;;;;;;;6.82;2.40;;;;;;;23.59;47.61;102766.88;4990653;28;20026;-72
2021/08/30 03:11:49;;;;;;;3.78;2.20;;;;;;;23.57;47.55;102767.19;4990499;28;20081;-74
2021/08/30 03:14:18;;;;;;;4.67;2.80;;;;;;;23.51;47.49;102760.28;4990906;28;20082;-74
2021/08/30 03:16:44;;;;;;;4.18;2.35;;;;;;;23.53;47.45;102766.31;4991723;28;20018;-89
2021/08/30 03:19:12;;;;;;;8.02;3.05;;;;;;;23.50;47.49;102764.19;4991869;28;20054;-73
2021/08/30 03:21:39;;;;;;;7.80;2.22;;;;;;;23.40;47.79;102759.94;4991364;28;20031;-73
2021/08/30 03:24:06;;;;;;;8.05;2.22;;;;;;;23.35;47.50;102768.56;4989950;28;20404;-74
2021/08/30 03:26:33;;;;;;;4.85;2.40;;;;;;;23.38;47.54;102765.06;4991234;28;20551;-72
2021/08/30 03:28:59;;;;;;;5.95;2.20;;;;;;;23.36;47.60;102767.38;4990578;28;20170;-73
2021/08/30 03:31:27;;;;;;;6.78;2.58;;;;;;;23.44;47.53;102763.66;4990248;28;20022;-73
2021/08/30 03:33:55;;;;;;;4.55;2.33;;;;;;;23.44;47.67;102765.63;4991645;28;20027;-72
2021/08/30 03:36:20;;;;;;;6.05;2.30;;;;;;;23.42;47.48;102765.16;4991405;28;20026;-73
2021/08/30 03:38:47;;;;;;;5.22;2.22;;;;;;;23.41;47.51;102767.13;4990487;28;20472;-73
2021/08/30 03:41:14;;;;;;;6.85;2.70;;;;;;;23.38;47.47;102765.06;4991854;28;20034;-73
2021/08/30 03:43:42;;;;;;;3.33;2.22;;;;;;;23.41;47.71;102766.31;4991291;28;20105;-73
2021/08/30 03:46:08;;;;;;;5.45;2.22;;;;;;;23.37;47.90;102765.41;4990572;28;20034;-73
2021/08/30 03:48:34;;;;;;;5.65;2.72;;;;;;;23.39;47.88;102765.88;4991744;28;20076;-73
2021/08/30 03:51:01;;;;;;;7.20;2.55;;;;;;;23.32;47.73;102772.03;4989886;28;20037;-73
2021/08/30 03:53:29;;;;;;;4.40;2.47;;;;;;;23.28;47.55;102761.94;4991357;28;20034;-73
2021/08/30 03:55:57;;;;;;;4.43;2.65;;;;;;;23.28;47.34;102765.56;4990995;28;20026;-73
2021/08/30 03:58:25;;;;;;;6.88;2.20;;;;;;;23.30;47.23;102766.00;4990717;28;20053;-72
2021/08/30 04:00:53;;;;;;;4.43;2.30;;;;;;;23.31;47.53;102764.84;4990918;28;20049;-72
2021/08/30 04:03:20;;;;;;;6.28;2.58;;;;;;;23.28;47.42;102767.53;4989498;28;20083;-73
2021/08/30 04:05:49;;;;;;;7.10;2.65;;;;;;;23.32;47.47;102758.09;4989724;28;20058;-73
2021/08/30 04:08:15;;;;;;;4.88;2.70;;;;;;;23.26;47.56;102763.09;4989642;28;20031;-90
2021/08/30 04:10:42;;;;;;;5.20;2.60;;;;;;;23.34;47.42;102766.91;4991251;28;20105;-78
2021/08/30 04:13:09;;;;;;;5.38;2.33;;;;;;;23.33;47.43;102759.72;4990104;28;20480;-79
2021/08/30 04:15:34;;;;;;;4.68;2.25;;;;;;;23.31;47.40;102755.66;4990846;28;20027;-73
2021/08/30 04:18:00;;;;;;;6.22;2.28;;;;;;;23.37;47.22;102754.25;4990778;28;20384;-72
2021/08/30 04:20:26;;;;;;;10.52;3.17;;;;;;;23.42;46.71;102749.22;4990941;28;20034;-74
2021/08/30 04:22:52;;;;;;;6.40;2.25;;;;;;;23.38;47.08;102750.31;4990723;28;20077;-73
2021/08/30 04:25:17;;;;;;;7.55;2.72;;;;;;;23.33;46.74;102748.56;4990851;28;20079;-83
2021/08/30 04:27:43;;;;;;;5.80;2.90;;;;;;;23.33;47.33;102744.94;4991249;28;20075;-89
2021/08/30 04:30:10;;;;;;;5.60;2.45;;;;;;;23.39;47.17;102751.91;4991217;28;20031;-73
2021/08/30 04:32:37;;;;;;;5.70;2.72;;;;;;;23.35;47.33;102753.78;4990830;28;20425;-89
2021/08/30 04:35:06;;;;;;;8.57;2.40;;;;;;;23.28;47.43;102750.78;4990743;28;20049;-83
2021/08/30 04:37:32;;;;;;;6.20;2.50;;;;;;;23.33;47.33;102754.13;4990806;28;20030;-73
2021/08/30 04:39:58;;;;;;;7.30;2.75;;;;;;;23.31;47.36;102758.44;4989643;28;20034;-72
2021/08/30 04:42:23;;;;;;;3.67;2.20;;;;;;;23.35;47.39;102760.19;4990719;28;20027;-72
2021/08/30 04:44:52;;;;;;;5.32;2.42;;;;;;;23.36;47.45;102761.81;4990345;28;20033;-72
2021/08/30 04:47:18;;;;;;;6.78;2.70;;;;;;;23.33;47.97;102758.91;4988853;28;20431;-80
2021/08/30 04:49:44;;;;;;;5.25;2.35;;;;;;;23.31;47.93;102762.03;4988873;28;20022;-73
2021/08/30 04:52:09;;;;;;;5.05;2.05;;;;;;;23.37;48.16;102759.84;4990348;28;20023;-73
2021/08/30 04:54:35;;;;;;;5.65;2.03;;;;;;;23.40;47.83;102762.72;4990406;28;20091;-85
2021/08/30 04:57:00;;;;;;;5.65;2.25;;;;;;;23.33;48.07;102759.72;4990221;28;20018;-77
2021/08/30 04:59:26;;;;;;;6.43;2.15;;;;;;;23.26;48.07;102762.28;4990338;28;20058;-77
2021/08/30 05:01:52;;;;;;;9.07;2.40;;;;;;;23.22;48.24;102761.38;4990310;28;20022;-75
2021/08/30 05:04:17;;;;;;;6.07;2.63;;;;;;;23.23;48.02;102761.00;4990092;28;20030;-83
2021/08/30 05:06:43;;;;;;;4.30;1.70;;;;;;;23.18;48.30;102758.44;4988873;28;20030;-75
2021/08/30 05:09:09;;;;;;;4.95;1.98;;;;;;;23.18;48.45;102764.03;4988810;28;20046;-75
2021/08/30 05:11:37;;;;;;;7.20;2.13;;;;;;;23.15;48.82;102758.34;4989020;28;20026;-76
2021/08/30 05:14:04;;;;;;;4.60;1.85;;;;;;;23.25;48.31;102761.47;4990267;28;20023;-75
2021/08/30 05:16:30;;;;;;;9.82;2.92;;;;;;;23.27;48.58;102775.06;4989998;28;20029;-76
2021/08/30 05:18:55;;;;;;;7.85;2.15;;;;;;;23.31;48.74;102777.97;4988782;28;20019;-77
2021/08/30 05:21:21;;;;;;;8.50;2.25;;;;;;;23.27;48.57;102777.84;4990049;28;20026;-85
2021/08/30 05:23:47;;;;;;;8.40;3.25;;;;;;;23.25;48.63;102786.56;4988974;28;20051;-75
2021/08/30 05:26:12;;;;;;;5.25;2.25;;;;;;;23.30;48.57;102784.72;4988619;28;20458;-76
2021/08/30 05:28:38;;;;;;;6.53;2.30;;;;;;;23.22;49.04;102776.13;4989861;28;20019;-75
2021/08/30 05:31:03;;;;;;;8.77;2.25;;;;;;;23.28;48.92;102787.88;4990163;28;20058;-76
2021/08/30 05:33:29;;;;;;;4.63;2.40;;;;;;;23.30;48.63;102788.31;4987689;28;20034;-75
2021/08/30 05:35:55;;;;;;;10.85;2.47;;;;;;;23.22;48.53;102792.84;4989563;28;20392;-75
2021/08/30 05:38:20;;;;;;;5.57;1.80;;;;;;;23.24;48.12;102789.72;4989092;28;20027;-75
2021/08/30 05:40:46;;;;;;;6.97;2.13;;;;;;;23.14;48.76;102793.78;4989284;28;20133;-75
2021/08/30 05:43:11;;;;;;;4.82;1.90;;;;;;;23.17;48.14;102793.09;4989763;28;20385;-75
2021/08/30 05:45:37;;;;;;;3.45;1.60;;;;;;;23.08;48.15;102795.19;4989840;28;20030;-81
2021/08/30 05:48:03;;;;;;;7.60;2.38;;;;;;;23.17;47.47;102795.88;4989753;28;20434;-76
2021/08/30 05:50:28;;;;;;;6.78;2.25;;;;;;;23.11;47.60;102788.91;4989539;28;20018;-76
2021/08/30 05:52:54;;;;;;;3.55;1.80;;;;;;;23.19;47.19;102787.97;4991531;28;20144;-75
2021/08/30 05:55:20;;;;;;;6.75;2.20;;;;;;;23.23;47.36;102796.47;4992964;28;20034;-75
2021/08/30 05:57:45;;;;;;;5.72;3.03;;;;;;;23.16;47.47;102796.22;4991456;28;20103;-90
2021/08/30 06:00:12;;;;;;;5.53;2.55;;;;;;;23.17;47.01;102795.88;4991464;28;20026;-75
2021/08/30 06:02:37;;;;;;;5.20;1.60;;;;;;;23.14;47.36;102804.13;4992764;28;20030;-76
2021/08/30 06:05:03;;;;;;;6.22;2.00;;;;;;;23.19;47.02;102806.66;4992528;28;20384;-75
2021/08/30 06:07:29;;;;;;;5.55;1.60;;;;;;;23.18;47.12;102808.66;4992621;28;20034;-75
2021/08/30 06:09:55;;;;;;;6.63;2.17;;;;;;;23.05;47.21;102804.25;4992486;28;20460;-76
2021/08/30 06:12:20;;;;;;;4.78;2.30;;;;;;;23.18;47.06;102805.84;4992192;28;20026;-74
2021/08/30 06:14:46;;;;;;;4.57;2.35;;;;;;;23.21;46.43;102802.41;4992496;28;20095;-73
2021/08/30 06:17:11;;;;;;;4.72;2.10;;;;;;;23.26;46.47;102799.34;4992866;28;20095;-73
2021/08/30 06:19:37;;;;;;;9.98;2.88;;;;;;;23.24;46.83;102801.69;4992499;28;20035;-73
2021/08/30 06:22:03;;;;;;;4.47;2.33;;;;;;;23.26;46.89;102804.09;4992547;28;20384;-73
2021/08/30 06:24:29;;;;;;;4.53;2.50;;;;;;;23.26;46.77;102802.13;4992293;28;20076;-73
2021/08/30 06:26:55;;;;;;;5.47;2.55;;;;;;;23.34;46.78;102803.16;4992637;28;20057;-74
2021/08/30 06:29:20;;;;;;;6.55;2.30;;;;;;;23.34;46.95;102813.50;4992393;28;20022;-75
2021/08/30 06:31:46;;;;;;;5.13;2.33;;;;;;;23.30;47.12;102804.25;4992605;28;20027;-75
2021/08/30 06:34:11;;;;;;;5.47;1.92;;;;;;;23.42;47.19;102816.16;4993538;28;20038;-74
2021/08/30 06:36:37;;;;;;;6.43;2.58;;;;;;;23.33;47.43;102809.09;4992939;28;20057;-75
2021/08/30 06:39:03;;;;;;;6.32;2.70;;;;;;;23.28;47.61;102809.38;4993289;28;20440;-91
2021/08/30 06:41:29;;;;;;;3.53;2.08;;;;;;;23.39;47.53;102808.53;4992907;28;20027;-90
2021/08/30 06:43:55;;;;;;;3.40;1.85;;;;;;;23.39;48.07;102811.31;4992418;28;20030;-74
2021/08/30 06:46:21;;;;;;;5.57;2.70;;;;;;;23.34;47.98;102811.53;4992597;28;20037;-75
2021/08/30 06:48:46;;;;;;;4.63;2.45;;;;;;;23.34;47.94;102807.94;4992465;28;20022;-80
2021/08/30 06:51:12;;;;;;;4.13;2.65;;;;;;;23.37;47.51;102816.44;4992119;28;20113;-75
2021/08/30 06:53:39;;;;;;;4.00;2.17;;;;;;;23.37;47.42;102810.03;4992125;28;20491;-82
2021/08/30 06:56:05;;;;;;;7.22;3.22;;;;;;;23.30;47.48;102819.00;4990167;28;20033;-75
2021/08/30 06:58:31;;;;;;;13.90;4.20;;;;;;;23.19;47.83;102815.03;4991511;28;20365;-75
2021/08/30 07:00:57;;;;;;;5.90;2.60;;;;;;;23.15;47.70;102819.69;4992167;28;20139;-75
2021/08/30 07:03:22;;;;;;;4.15;2.10;;;;;;;23.33;47.40;102828.63;4990364;28;20026;-76
2021/08/30 07:05:48;;;;;;;6.88;2.65;;;;;;;23.24;47.44;102823.19;4992425;28;20404;-84
2021/08/30 07:08:13;;;;;;;4.38;2.10;;;;;;;23.20;46.89;102825.88;4992043;28;20147;-75
2021/08/30 07:10:39;;;;;;;3.75;1.92;;;;;;;23.15;46.42;102830.84;4992088;28;20033;-76
2021/08/30 07:13:04;;;;;;;5.45;2.15;;;;;;;23.17;46.07;102826.56;4991998;28;20031;-76
2021/08/30 07:15:30;;;;;;;9.68;2.45;;;;;;;23.13;46.14;102825.63;4991962;28;20030;-78
2021/08/30 07:17:56;;;;;;;6.40;2.03;;;;;;;23.19;45.99;102823.41;4992015;28;20027;-84
2021/08/30 07:20:21;;;;;;;3.65;1.67;;;;;;;23.13;46.27;102827.63;4992091;28;20057;-86
2021/08/30 07:22:47;;;;;;;6.88;2.28;;;;;;;23.20;45.72;102830.59;4991502;28;20408;-76
2021/08/30 07:25:12;;;;;;;4.95;2.10;;;;;;;23.25;45.93;102835.97;4990727;28;20073;-76
2021/08/30 07:27:38;;;;;;;14.98;2.83;;;;;;;23.17;46.12;102834.91;5010716;28;20537;-76
2021/08/30 07:30:04;;;;;;;5.70;1.73;;;;;;;23.22;45.88;102834.69;5011203;28;20033;-76
2021/08/30 07:32:30;;;;;;;8.32;1.65;;;;;;;23.15;46.01;102842.81;5011070;28;20022;-76
2021/08/30 07:34:56;;;;;;;9.65;2.33;;;;;;;23.13;45.83;102831.22;5011343;28;20021;-78
2021/08/30 07:37:22;;;;;;;3.55;1.52;;;;;;;23.07;45.87;102834.56;5010935;28;20604;-76
2021/08/30 07:39:47;;;;;;;4.28;1.83;;;;;;;22.98;46.18;102841.09;5011118;28;20441;-76
2021/08/30 07:42:13;;;;;;;7.07;1.85;;;;;;;23.03;46.01;102839.22;5011183;28;20092;-80
2021/08/30 07:44:39;;;;;;;8.38;2.45;;;;;;;23.01;45.85;102845.13;5010493;28;20041;-74
2021/08/30 07:47:05;;;;;;;4.20;1.52;;;;;;;23.09;45.94;102844.22;5009618;28;20025;-89
2021/08/30 07:49:31;;;;;;;4.78;1.75;;;;;;;23.16;45.70;102855.59;5011117;28;20464;-76
2021/08/30 07:51:57;;;;;;;8.80;2.25;;;;;;;23.16;46.09;102852.81;5010951;28;20018;-77
2021/08/30 07:54:22;;;;;;;5.60;1.70;;;;;;;23.17;45.80;102850.84;5011416;28;20037;-75
2021/08/30 07:56:48;;;;;;;4.75;1.75;;;;;;;23.17;45.89;102851.66;4998676;28;20057;-79
2021/08/30 07:59:13;;;;;;;3.65;1.25;;;;;;;23.16;45.80;102849.22;4992011;28;20027;-95
2021/08/30 08:01:39;;;;;;;5.80;1.77;;;;;;;23.13;45.56;102861.88;4990164;28;20033;-76
2021/08/30 08:04:05;;;;;;;5.80;1.80;;;;;;;23.05;45.56;102865.59;4990459;28;20026;-76
2021/08/30 08:06:30;;;;;;;6.38;1.73;;;;;;;23.11;45.86;102861.41;4991220;28;20062;-71
2021/08/30 08:08:56;;;;;;;3.65;1.10;;;;;;;23.00;45.98;102867.78;4991929;28;20022;-93
2021/08/30 08:11:22;;;;;;;4.80;1.75;;;;;;;23.02;45.59;102871.03;4991101;28;20018;-84
2021/08/30 08:13:47;;;;;;;3.45;1.50;;;;;;;23.08;45.67;102875.22;4990219;28;20539;-85
2021/08/30 08:16:13;;;;;;;9.85;2.80;;;;;;;23.08;45.62;102875.22;4990195;28;20027;-74
2021/08/30 08:18:39;;;;;;;8.55;2.08;;;;;;;23.13;45.89;102877.81;4988427;28;20109;-75
2021/08/30 08:21:07;;;;;;;7.65;1.70;;;;;;;23.13;45.25;102889.78;4989808;28;20392;-76
2021/08/30 08:23:33;;;;;;;5.95;1.63;;;;;;;23.03;45.49;102889.41;4989631;28;20057;-86
2021/08/30 08:25:59;;;;;;;5.35;2.92;;;;;;;23.17;45.47;102884.28;4988551;28;20046;-74
2021/08/30 08:28:24;;;;;;;4.38;1.77;;;;;;;23.13;45.44;102891.75;4990427;28;20034;-74
2021/08/30 08:30:51;;;;;;;6.55;2.47;;;;;;;23.11;45.72;102889.28;4990892;28;20030;-75
2021/08/30 08:33:17;;;;;;;3.80;2.03;;;;;;;23.08;45.68;102891.97;4990597;28;20118;-75
2021/08/30 08:35:42;;;;;;;5.93;2.42;;;;;;;23.03;45.61;102890.19;4990539;28;20408;-75
2021/08/30 08:38:09;;;;;;;4.18;2.10;;;;;;;23.15;45.39;102889.41;4990643;28;20030;-72
2021/08/30 08:40:35;;;;;;;4.72;1.40;;;;;;;23.12;45.70;102893.69;4990665;28;20105;-74
2021/08/30 08:43:01;;;;;;;9.02;2.10;;;;;;;23.16;45.47;102894.63;4989021;28;20062;-73
2021/08/30 08:45:28;;;;;;;8.63;1.70;;;;;;;23.22;45.27;102893.25;4988908;28;20086;-74
2021/08/30 08:47:54;;;;;;;8.77;1.70;;;;;;;23.23;45.02;102906.03;4990595;28;20068;-78
2021/08/30 08:50:21;;;;;;;7.85;1.95;;;;;;;23.27;44.64;102894.97;4990093;28;20092;-75
2021/08/30 08:52:47;;;;;;;10.27;2.28;;;;;;;23.32;44.48;102897.56;4990333;28;20135;-74
2021/08/30 08:55:14;;;;;;;3.85;1.83;;;;;;;23.23;45.24;102905.22;4990037;28;20124;-73
2021/08/30 08:57:41;;;;;;;4.72;1.52;;;;;;;23.31;44.91;102900.69;4990453;28;20087;-74
2021/08/30 09:00:09;;;;;;;4.53;1.65;;;;;;;23.25;45.20;102892.56;4989733;28;20038;-72
2021/08/30 09:02:35;;;;;;;2.72;1.60;;;;;;;23.19;44.96;102895.91;4990280;28;20030;-73
2021/08/30 09:05:05;;;;;;;5.97;2.00;;;;;;;23.18;44.67;102897.06;4989993;28;20037;-83
2021/08/30 09:07:40;;;;;;;4.10;1.80;;;;;;;23.35;44.93;102894.09;4988844;28;20524;-71
2021/08/30 09:10:12;;;;;;;9.27;2.28;;;;;;;23.29;46.04;102898.25;4988938;28;20037;-72
2021/08/30 09:12:39;;;;;;;6.13;2.35;;;;;;;23.19;46.77;102907.06;4989988;28;20038;-73
2021/08/30 09:15:39;;;;;;;6.32;2.00;;;;;;;23.17;47.02;102912.19;4988835;28;20160;-69
2021/08/30 09:18:08;;;;;;;9.55;2.40;;;;;;;23.15;47.11;102908.94;4985928;28;20147;-74
2021/08/30 09:20:34;;;;;;;4.18;1.58;;;;;;;23.18;46.70;102914.63;4989711;28;20071;-76
2021/08/30 09:23:09;;;;;;;7.53;2.08;;;;;;;23.19;46.69;102916.25;4988662;28;20106;-78
2021/08/30 09:25:35;;;;;;;13.95;3.30;;;;;;;23.32;45.98;102913.47;4988126;28;20030;-75
2021/08/30 09:28:01;;;;;;;6.78;1.90;;;;;;;23.21;45.71;102908.38;4991554;28;20065;-76
2021/08/30 09:30:28;;;;;;;4.30;2.08;;;;;;;23.20;45.17;102915.09;4992331;28;20062;-89
2021/08/30 09:32:54;;;;;;;3.78;1.52;;;;;;;23.26;44.96;102915.66;4992036;28;20026;-75
2021/08/30 09:35:21;;;;;;;10.27;2.42;;;;;;;23.37;45.38;102922.44;4992064;28;20030;-85
2021/08/30 09:37:47;;;;;;;5.35;1.80;;;;;;;23.35;45.63;102921.97;4991989;28;20417;-83
2021/08/30 09:40:18;;;;;;;4.10;1.95;;;;;;;23.26;45.43;102922.06;4992012;28;20115;-77
2021/08/30 09:42:51;;;;;;;9.45;2.08;;;;;;;23.15;45.00;102920.09;4992890;28;20524;-70
2021/08/30 09:45:26;;;;;;;4.38;1.70;;;;;;;23.15;44.80;102932.06;4992795;28;20030;-70
2021/08/30 09:47:57;;;;;;;4.78;1.40;;;;;;;23.23;44.48;102928.34;4992888;28;20030;-70
2021/08/30 09:50:28;;;;;;;4.75;1.88;;;;;;;23.31;44.57;102934.16;4992517;28;20113;-70
2021/08/30 09:52:54;;;;;;;5.25;1.80;;;;;;;23.30;44.39;102927.78;4989888;28;20076;-70
2021/08/30 09:55:19;;;;;;;5.85;1.67;;;;;;;23.36;44.33;102928.38;4990976;28;20122;-69
2021/08/30 09:57:50;;;;;;;5.47;1.90;;;;;;;23.40;44.00;102898.59;5008349;28;20030;-69
2021/08/30 10:00:17;;;;;;;3.97;1.60;;;;;;;23.43;43.76;102923.84;5010502;28;20468;-69
2021/08/30 10:02:49;;;;;;;4.38;1.67;;;;;;;23.44;43.90;102933.00;5010557;28;20433;-69
2021/08/30 10:05:16;;;;;;;5.75;2.05;;;;;;;23.48;44.03;102920.78;5010593;28;20106;-70
2021/08/30 10:07:45;;;;;;;4.20;1.60;;;;;;;23.49;43.72;102919.63;5011912;28;20034;-68
2021/08/30 10:10:12;;;;;;;7.60;2.15;;;;;;;23.59;43.41;102925.94;5010538;28;20493;-68
2021/08/30 10:12:38;;;;;;;5.05;2.00;;;;;;;23.55;43.89;102925.78;5010119;28;20106;-69
2021/08/30 10:15:05;;;;;;;3.78;2.15;;;;;;;23.58;43.96;102925.13;5010045;28;20021;-69
2021/08/30 10:17:31;;;;;;;4.82;2.15;;;;;;;23.52;43.87;102926.50;5010267;28;20034;-69
2021/08/30 10:19:59;;;;;;;4.30;2.10;;;;;;;23.53;43.75;102928.13;5010106;28;20373;-70
2021/08/30 10:22:26;;;;;;;6.10;2.10;;;;;;;23.59;43.65;102934.31;5010110;28;20022;-70
2021/08/30 10:24:53;;;;;;;7.30;2.15;;;;;;;23.65;43.31;102939.28;5011241;28;20029;-70
2021/08/30 10:27:33;;;;;;;5.55;2.17;;;;;;;23.71;43.33;102942.69;5010156;28;20056;-70
2021/08/30 10:30:25;;;;;;;8.13;2.85;;;;;;;23.66;43.54;102935.38;5012225;28;20018;-69
2021/08/30 10:32:59;;;;;;;4.45;2.50;;;;;;;23.64;43.49;102940.47;5009644;28;20053;-70
2021/08/30 10:35:30;;;;;;;9.25;3.15;;;;;;;23.62;44.07;102940.00;5011740;28;20065;-69
2021/08/30 10:37:59;;;;;;;6.05;2.40;;;;;;;23.43;44.53;102942.56;5011045;28;20490;-80
2021/08/30 10:40:29;;;;;;;7.50;2.95;;;;;;;23.36;44.72;102937.53;5011879;28;20034;-70
2021/08/30 10:43:05;;;;;;;6.53;2.72;;;;;;;23.35;44.56;102943.44;5011715;28;20022;-70
2021/08/30 10:45:39;;;;;;;5.30;2.50;;;;;;;23.37;44.48;102941.16;5011499;28;20030;-69
2021/08/30 10:48:15;;;;;;;6.97;2.83;;;;;;;23.46;44.53;102945.44;5010525;28;20030;-70
2021/08/30 10:50:50;;;;;;;3.47;2.03;;;;;;;23.40;43.94;102940.44;5011478;28;20058;-72
2021/08/30 10:53:18;;;;;;;4.22;2.22;;;;;;;23.40;43.61;102946.84;5011672;28;20031;-74
2021/08/30 10:55:47;;;;;;;5.00;2.00;;;;;;;23.41;43.77;102936.47;5008501;28;20105;-71
2021/08/30 10:58:24;;;;;;;7.38;2.20;;;;;;;23.39;44.26;102947.19;5011317;28;20054;-70
2021/08/30 11:00:52;;;;;;;7.20;2.42;;;;;;;23.42;44.18;102946.47;5010132;28;20098;-70
2021/08/30 11:03:26;;;;;;;6.35;1.83;;;;;;;23.35;44.48;102944.28;5011691;28;20042;-70
2021/08/30 11:06:03;;;;;;;4.63;2.15;;;;;;;23.25;44.46;102941.94;5011354;28;20053;-70
2021/08/30 11:08:28;;;;;;;6.35;2.72;;;;;;;23.07;44.83;102952.50;5011300;28;20388;-69
2021/08/30 11:11:10;;;;;;;3.97;2.00;;;;;;;23.02;44.75;102947.13;5011023;28;20022;-69
2021/08/30 11:13:36;;;;;;;7.00;2.53;;;;;;;23.03;45.19;102948.75;5011099;28;20030;-69
2021/08/30 11:16:02;;;;;;;4.22;1.75;;;;;;;23.06;44.44;102947.28;5011338;28;20041;-70
2021/08/30 11:18:28;;;;;;;4.00;2.10;;;;;;;23.04;44.02;102955.94;5011102;28;20440;-71
2021/08/30 11:20:54;;;;;;;12.60;2.78;;;;;;;23.06;44.28;102958.41;5011035;28;20064;-70
2021/08/30 11:23:19;;;;;;;5.47;2.33;;;;;;;23.00;44.85;102959.78;5010945;28;20046;-70
2021/08/30 11:25:45;;;;;;;7.35;2.90;;;;;;;23.01;45.17;102965.03;5004901;28;20030;-70
2021/08/30 11:28:18;;;;;;;4.93;1.98;;;;;;;22.93;44.42;102965.94;4991394;28;20030;-70
2021/08/30 11:30:45;;;;;;;6.05;2.58;;;;;;;22.93;44.90;102963.13;4991323;28;20069;-70
2021/08/30 11:33:24;;;;;;;6.00;2.35;;;;;;;23.04;45.35;102964.31;4991177;28;20030;-70